Time;durP1;ratioP1;P1;durP2;ratioP2;P2;SDS_P1;SDS_P2;PMS_P1;PMS_P2;Temp;Humidity;BMP_temperature;BMP_pressure;BME280_temperature;BME280_humidity;BME280_pressure;Samples;Min_cycle;Max_cycle;Signal;HPM_P1;HPM_P2
2024/02/17 00:01:31;;;;;;;32.78;15.77;;;;;;;-6.03;61.41;101267.56;5128466;27;20027;-64
2024/02/17 00:03:58;;;;;;;27.83;13.27;;;;;;;-6.04;61.08;101263.19;5134444;27;20034;-63
2024/02/17 00:06:23;;;;;;;37.05;16.85;;;;;;;-6.10;61.35;101273.56;5129051;27;20023;-63
2024/02/17 00:08:49;;;;;;;30.05;16.65;;;;;;;-6.09;61.59;101293.56;5116853;27;20164;-63
2024/02/17 00:11:15;;;;;;;37.55;17.70;;;;;;;-6.12;61.98;101280.50;5134314;27;20046;-64
2024/02/17 00:13:42;;;;;;;32.78;16.95;;;;;;;-6.08;62.08;101280.56;5134210;27;20023;-63
2024/02/17 00:16:07;;;;;;;35.20;16.85;;;;;;;-6.16;61.91;101253.50;5134866;27;20058;-63
2024/02/17 00:18:33;;;;;;;34.03;16.17;;;;;;;-6.02;61.34;101274.56;5134525;27;20451;-63
2024/02/17 00:21:03;;;;;;;31.63;16.38;;;;;;;-6.02;60.90;101271.94;5064377;27;20086;-62
2024/02/17 00:23:28;;;;;;;33.90;15.90;;;;;;;-6.63;61.02;101156.59;5050221;28;20037;-63
2024/02/17 00:25:54;;;;;;;37.15;17.17;;;;;;;-6.05;61.49;101253.63;5078735;27;20106;-63
2024/02/17 00:28:25;;;;;;;34.72;16.85;;;;;;;-6.09;61.49;101252.75;5134215;27;20038;-64
2024/02/17 00:30:51;;;;;;;32.55;16.83;;;;;;;-6.00;61.81;101257.16;5134221;27;20474;-63
2024/02/17 00:33:16;;;;;;;32.20;16.50;;;;;;;-6.02;61.74;101255.41;5134256;27;20063;-63
2024/02/17 00:35:43;;;;;;;36.20;17.10;;;;;;;-6.04;61.88;101255.38;5133600;27;20123;-63
2024/02/17 00:38:08;;;;;;;32.22;17.30;;;;;;;-6.20;62.08;101223.06;5134025;27;20074;-63
2024/02/17 00:40:34;;;;;;;39.20;16.73;;;;;;;-5.93;62.61;101258.97;5127851;27;20019;-62
2024/02/17 00:42:59;;;;;;;37.60;17.42;;;;;;;-5.95;61.60;101244.16;5130114;27;20031;-63
2024/02/17 00:45:25;;;;;;;37.05;17.15;;;;;;;-5.73;61.25;101239.16;5131792;27;20435;-63
2024/02/17 00:47:51;;;;;;;33.67;17.50;;;;;;;-5.80;60.99;101240.81;5127777;27;20110;-62
2024/02/17 00:50:16;;;;;;;29.85;16.02;;;;;;;-5.83;61.52;101219.91;5133678;27;20138;-63
2024/02/17 00:52:42;;;;;;;33.60;16.17;;;;;;;-5.85;61.60;101229.47;5133779;27;20095;-63
2024/02/17 00:55:08;;;;;;;33.00;16.63;;;;;;;-5.85;61.42;101237.28;5133928;27;20336;-62
2024/02/17 00:57:33;;;;;;;35.65;16.55;;;;;;;-5.85;61.76;101230.34;5133957;27;20454;-63
2024/02/17 00:59:58;;;;;;;33.17;16.55;;;;;;;-5.83;61.81;101238.19;5133600;27;20038;-60
2024/02/17 01:02:29;;;;;;;33.92;16.67;;;;;;;-5.79;61.89;101224.31;5083078;27;20052;-63
2024/02/17 01:04:55;;;;;;;32.20;16.33;;;;;;;-5.84;61.68;101226.00;5050263;28;20208;-63
2024/02/17 01:07:20;;;;;;;34.22;17.13;;;;;;;-5.85;61.98;101232.97;5049796;28;20064;-62
2024/02/17 01:09:46;;;;;;;33.60;16.45;;;;;;;-5.74;61.52;101225.25;5054826;27;20044;-64
2024/02/17 01:12:11;;;;;;;33.55;16.95;;;;;;;-5.76;61.69;101221.75;5049312;28;20037;-64
2024/02/17 01:14:36;;;;;;;31.48;15.85;;;;;;;-5.75;61.52;101215.66;5049483;28;20025;-64
2024/02/17 01:17:02;;;;;;;32.13;17.05;;;;;;;-5.81;61.57;101221.69;5049247;28;20021;-64
2024/02/17 01:19:27;;;;;;;38.90;17.55;;;;;;;-5.83;61.89;101210.38;5049172;28;20416;-62
2024/02/17 01:21:53;;;;;;;33.30;16.50;;;;;;;-5.84;61.72;101218.16;5049153;28;20111;-65
2024/02/17 01:24:18;;;;;;;36.08;17.40;;;;;;;-5.91;61.60;101193.75;5054192;27;20560;-63
2024/02/17 01:26:44;;;;;;;34.58;16.67;;;;;;;-5.81;61.71;101206.03;5049075;28;20041;-64
2024/02/17 01:29:09;;;;;;;32.15;16.80;;;;;;;-5.84;61.58;101200.81;5054426;27;20110;-64
2024/02/17 01:31:35;;;;;;;35.13;17.55;;;;;;;-6.08;61.87;101152.81;5048976;28;20043;-64
2024/02/17 01:34:00;;;;;;;34.88;17.10;;;;;;;-5.83;62.08;101193.84;5048362;28;20036;-62
2024/02/17 01:36:26;;;;;;;31.45;15.63;;;;;;;-5.78;61.54;101198.25;5049287;28;20060;-65
2024/02/17 01:38:51;;;;;;;34.83;17.45;;;;;;;-5.80;61.55;101189.53;5048933;28;20169;-64
2024/02/17 01:41:18;;;;;;;39.33;18.13;;;;;;;-5.82;61.56;101177.31;5049519;28;20033;-64
2024/02/17 01:43:43;;;;;;;32.75;17.13;;;;;;;-5.70;61.89;101174.81;5048736;28;20455;-63
2024/02/17 01:46:10;;;;;;;35.78;16.35;;;;;;;-5.71;61.48;101191.34;5059858;28;20053;-64
2024/02/17 01:48:36;;;;;;;33.17;16.48;;;;;;;-5.73;61.40;101169.59;5054494;28;20142;-63
2024/02/17 01:51:04;;;;;;;36.13;17.40;;;;;;;-5.70;61.27;101167.00;5053906;28;20124;-62
2024/02/17 01:53:30;;;;;;;32.97;16.33;;;;;;;-5.69;61.21;101181.78;5049979;28;20037;-64
2024/02/17 01:55:57;;;;;;;37.50;17.35;;;;;;;-5.69;61.66;101187.00;5052543;28;20105;-65
2024/02/17 01:58:22;;;;;;;33.20;16.92;;;;;;;-5.69;61.16;101173.97;5057708;27;20046;-65
2024/02/17 02:00:49;;;;;;;34.75;16.90;;;;;;;-5.65;61.48;101167.91;5125701;27;20163;-65
2024/02/17 02:03:14;;;;;;;33.08;17.58;;;;;;;-5.66;61.53;101168.78;5137367;27;20030;-63
2024/02/17 02:05:40;;;;;;;35.20;16.60;;;;;;;-5.65;61.34;101167.91;5137036;27;20037;-64
2024/02/17 02:08:06;;;;;;;34.38;17.85;;;;;;;-5.66;61.97;101158.34;5135626;27;20038;-63
2024/02/17 02:10:31;;;;;;;35.97;17.40;;;;;;;-5.57;61.84;101175.81;5131316;27;20362;-64
2024/02/17 02:12:56;;;;;;;37.63;17.98;;;;;;;-5.65;61.58;101157.47;5137319;27;20084;-63
2024/02/17 02:15:22;;;;;;;33.88;16.30;;;;;;;-5.66;61.38;101166.16;5136625;27;20421;-63
2024/02/17 02:17:47;;;;;;;36.50;17.38;;;;;;;-5.60;61.84;101162.72;5130359;27;20042;-63
2024/02/17 02:20:13;;;;;;;33.08;17.65;;;;;;;-5.56;62.12;101163.59;5137318;27;20387;-61
2024/02/17 02:22:41;;;;;;;35.33;16.70;;;;;;;-5.58;61.12;101145.34;5137117;27;20034;-62
2024/02/17 02:25:23;;;;;;;33.03;17.00;;;;;;;-6.00;61.59;101086.75;5136469;27;20050;-63
2024/02/17 02:27:49;;;;;;;30.52;15.98;;;;;;;-5.45;61.30;101161.97;5136448;27;20455;-63
2024/02/17 02:30:14;;;;;;;33.92;16.40;;;;;;;-5.54;61.25;101165.38;5137075;27;20033;-63
2024/02/17 02:32:40;;;;;;;35.42;16.83;;;;;;;-5.59;62.15;101153.16;5130647;27;20039;-61
2024/02/17 02:35:05;;;;;;;34.85;17.10;;;;;;;-5.56;62.04;101150.56;5135241;27;20078;-62
2024/02/17 02:37:31;;;;;;;30.52;16.55;;;;;;;-5.45;61.69;101161.06;5130294;27;20045;-63
2024/02/17 02:39:56;;;;;;;29.88;15.90;;;;;;;-5.54;62.03;101164.53;5135748;27;20106;-62
2024/02/17 02:42:22;;;;;;;34.67;17.25;;;;;;;-5.52;61.98;101152.34;5136668;27;20039;-63
2024/02/17 02:44:47;;;;;;;32.97;17.15;;;;;;;-5.49;61.86;101149.75;5136050;27;20447;-63
2024/02/17 02:47:13;;;;;;;37.00;17.48;;;;;;;-5.50;61.65;101164.53;5136032;27;20036;-63
2024/02/17 02:49:38;;;;;;;35.42;17.50;;;;;;;-5.53;61.45;101156.69;5135603;27;20455;-63
2024/02/17 02:52:04;;;;;;;35.35;16.30;;;;;;;-5.79;61.67;101105.19;5136726;27;20471;-63
2024/02/17 02:54:29;;;;;;;33.72;17.17;;;;;;;-5.57;61.78;101141.00;5136165;27;20043;-62
2024/02/17 02:56:54;;;;;;;31.40;15.07;;;;;;;-5.48;61.64;101147.16;5129577;27;20053;-63
2024/02/17 02:59:20;;;;;;;30.90;16.40;;;;;;;-5.52;61.79;101147.13;5129962;27;20029;-61
2024/02/17 03:01:46;;;;;;;35.50;17.30;;;;;;;-5.51;61.84;101147.13;5136331;27;20024;-63
2024/02/17 03:04:11;;;;;;;31.75;15.15;;;;;;;-5.50;61.58;101148.03;5136168;27;20074;-63
2024/02/17 03:06:37;;;;;;;34.70;17.60;;;;;;;-5.51;61.39;101146.28;5127699;27;20031;-64
2024/02/17 03:09:02;;;;;;;32.78;16.33;;;;;;;-5.53;61.43;101140.19;5136414;27;20027;-64
2024/02/17 03:11:28;;;;;;;33.67;17.20;;;;;;;-5.55;61.91;101134.94;5135924;27;20027;-64
2024/02/17 03:13:54;;;;;;;31.90;16.73;;;;;;;-5.52;61.64;101132.34;5135611;27;20072;-64
2024/02/17 03:16:23;;;;;;;35.00;17.77;;;;;;;-5.53;61.84;101133.19;5135318;27;20121;-65
2024/02/17 03:18:49;;;;;;;34.42;17.88;;;;;;;-5.89;62.67;101071.19;5135254;27;20080;-62
2024/02/17 03:21:14;;;;;;;36.90;18.42;;;;;;;-5.57;62.10;101121.00;5127936;27;20392;-63
2024/02/17 03:23:40;;;;;;;33.67;17.80;;;;;;;-5.49;61.83;101126.28;5135505;27;20038;-64
2024/02/17 03:26:05;;;;;;;29.95;16.38;;;;;;;-5.45;62.65;101121.94;5135578;27;20034;-63
2024/02/17 03:28:31;;;;;;;29.42;15.98;;;;;;;-5.48;62.59;101104.53;5135732;27;20019;-62
2024/02/17 03:30:57;;;;;;;34.03;16.52;;;;;;;-5.40;62.53;101102.81;5135343;27;20046;-62
2024/02/17 03:33:23;;;;;;;36.55;16.88;;;;;;;-5.38;62.54;101101.09;5135083;27;20428;-62
2024/02/17 03:35:48;;;;;;;34.30;16.75;;;;;;;-5.29;61.95;101095.06;5128533;27;20042;-63
2024/02/17 03:38:14;;;;;;;30.25;15.63;;;;;;;-5.17;62.02;101089.03;5135091;27;20366;-64
2024/02/17 03:40:39;;;;;;;34.28;17.30;;;;;;;-5.23;61.63;101094.22;5128742;27;20027;-64
2024/02/17 03:43:04;;;;;;;33.30;17.10;;;;;;;-5.26;62.16;101089.00;5123137;27;20031;-64
2024/02/17 03:45:30;;;;;;;40.10;18.50;;;;;;;-5.30;62.15;101071.56;5134839;27;20031;-63
2024/02/17 03:47:55;;;;;;;39.13;17.83;;;;;;;-5.21;61.85;101077.69;5134940;27;20105;-63
2024/02/17 03:50:21;;;;;;;33.97;17.73;;;;;;;-5.54;62.43;101026.22;5135177;27;20024;-65
2024/02/17 03:52:47;;;;;;;34.72;16.73;;;;;;;-5.13;62.25;101076.88;5134818;27;20039;-63
2024/02/17 03:55:12;;;;;;;31.77;15.75;;;;;;;-5.20;61.63;101062.91;5134556;27;20054;-62
2024/02/17 03:57:38;;;;;;;35.88;17.35;;;;;;;-5.42;62.00;101018.44;5131074;27;20087;-61
2024/02/17 04:00:04;;;;;;;39.47;18.65;;;;;;;-5.25;62.31;101060.25;5056399;27;20036;-63
2024/02/17 04:02:29;;;;;;;34.60;17.77;;;;;;;-5.14;62.16;101070.75;5050427;28;20041;-64
2024/02/17 04:04:54;;;;;;;36.67;18.20;;;;;;;-5.12;61.70;101062.94;5050235;28;20027;-63
2024/02/17 04:07:20;;;;;;;35.78;18.98;;;;;;;-5.17;61.99;101046.38;5050980;28;20047;-64
2024/02/17 04:09:45;;;;;;;36.75;17.20;;;;;;;-5.14;61.90;101055.09;5050535;28;20029;-62
2024/02/17 04:12:11;;;;;;;39.28;19.98;;;;;;;-5.16;61.81;101046.38;5049150;28;20031;-62
2024/02/17 04:14:37;;;;;;;37.33;19.33;;;;;;;-5.13;62.04;101058.59;5056517;27;21721;-67
2024/02/17 04:17:02;;;;;;;42.63;21.83;;;;;;;-5.16;61.69;101049.00;5049562;28;20139;-65
2024/02/17 04:19:28;;;;;;;46.75;22.13;;;;;;;-5.18;61.93;101048.13;5054698;27;20029;-63
2024/02/17 04:21:53;;;;;;;45.60;21.88;;;;;;;-5.14;62.25;101046.41;5050055;28;20094;-62
2024/02/17 04:24:19;;;;;;;42.83;21.73;;;;;;;-5.14;62.21;101044.66;5050419;28;20033;-64
2024/02/17 04:26:44;;;;;;;46.85;20.52;;;;;;;-5.16;61.83;101038.53;5049060;28;20349;-63
2024/02/17 04:29:11;;;;;;;40.97;20.63;;;;;;;-5.20;62.57;101037.66;5050133;28;20037;-63
2024/02/17 04:31:37;;;;;;;46.38;20.38;;;;;;;-5.23;62.98;101034.16;5049992;28;20441;-64
2024/02/17 04:34:02;;;;;;;40.40;19.50;;;;;;;-5.15;62.52;101029.84;5049211;28;20039;-64
2024/02/17 04:36:28;;;;;;;36.95;18.08;;;;;;;-5.07;62.65;101029.88;5050517;28;20111;-62
2024/02/17 04:38:53;;;;;;;33.63;18.45;;;;;;;-5.13;62.56;101017.66;5050059;28;20341;-62
2024/02/17 04:41:18;;;;;;;38.85;19.13;;;;;;;-5.05;61.90;101010.75;5049343;28;20029;-63
2024/02/17 04:43:47;;;;;;;32.20;17.42;;;;;;;-5.05;62.69;101000.28;5049961;28;20037;-63
2024/02/17 04:46:12;;;;;;;40.25;18.58;;;;;;;-4.97;61.71;101009.88;5050427;28;20353;-69
2024/02/17 04:48:38;;;;;;;38.97;18.80;;;;;;;-5.05;62.39;101002.91;5049844;28;20021;-67
2024/02/17 04:51:04;;;;;;;35.00;16.85;;;;;;;-4.98;62.61;100997.69;5049514;28;20102;-71
2024/02/17 04:53:30;;;;;;;32.40;17.08;;;;;;;-5.01;62.06;101001.16;5049762;28;20041;-64
2024/02/17 04:55:55;;;;;;;32.55;17.83;;;;;;;-4.92;61.78;100997.69;5048825;28;20557;-78
2024/02/17 04:58:20;;;;;;;32.47;16.60;;;;;;;-4.99;62.25;100999.41;5049685;28;20029;-72
2024/02/17 05:00:46;;;;;;;35.50;18.10;;;;;;;-5.00;62.00;100989.84;5049208;28;20032;-70
2024/02/17 05:03:13;;;;;;;34.08;17.98;;;;;;;-4.98;62.41;100984.63;5049587;28;20426;-62
2024/02/17 05:05:39;;;;;;;35.88;17.05;;;;;;;-4.92;62.59;100995.97;5049714;28;20029;-69
2024/02/17 05:08:05;;;;;;;34.15;17.67;;;;;;;-4.92;62.47;100989.88;5048528;28;20140;-68
2024/02/17 05:10:30;;;;;;;32.72;17.08;;;;;;;-4.82;62.63;100989.03;5049280;28;20040;-72
2024/02/17 05:12:55;;;;;;;31.67;15.68;;;;;;;-4.73;61.65;100979.44;5049062;28;20032;-67
2024/02/17 05:15:21;;;;;;;29.05;14.65;;;;;;;-4.62;61.88;100988.16;5049091;28;20033;-66
2024/02/17 05:17:46;;;;;;;33.60;17.35;;;;;;;-4.70;61.93;100976.84;5049192;27;20040;-65
2024/02/17 05:20:12;;;;;;;32.92;17.40;;;;;;;-4.79;62.01;100970.75;5048655;28;20122;-59
2024/02/17 05:22:38;;;;;;;37.15;17.05;;;;;;;-4.70;62.16;100982.06;5048086;28;20033;-66
2024/02/17 05:25:04;;;;;;;34.03;17.38;;;;;;;-4.72;62.71;100971.59;5049384;28;20124;-64
2024/02/17 05:27:30;;;;;;;32.72;17.55;;;;;;;-4.64;61.84;100979.44;5049467;28;20536;-67
2024/02/17 05:29:55;;;;;;;35.78;16.25;;;;;;;-4.66;61.79;100963.78;5047750;28;20032;-68
2024/02/17 05:32:21;;;;;;;39.33;17.23;;;;;;;-4.62;62.04;100975.09;5049190;28;20421;-67
2024/02/17 05:34:46;;;;;;;34.25;16.52;;;;;;;-4.56;61.83;100974.22;5048732;28;20506;-67
2024/02/17 05:37:12;;;;;;;33.78;17.45;;;;;;;-4.50;61.14;100967.25;5049415;28;20033;-63
2024/02/17 05:39:37;;;;;;;34.42;17.67;;;;;;;-4.61;61.57;100984.66;5049301;28;20037;-66
2024/02/17 05:42:02;;;;;;;33.63;17.42;;;;;;;-4.68;62.25;100962.91;5048518;28;20033;-62
2024/02/17 05:44:28;;;;;;;35.75;18.10;;;;;;;-4.47;61.44;100982.06;5049196;28;20060;-65
2024/02/17 05:46:53;;;;;;;35.70;17.38;;;;;;;-4.48;61.47;100975.97;5049194;28;20037;-66
2024/02/17 05:49:22;;;;;;;39.75;17.75;;;;;;;-4.38;61.47;100978.56;5048805;28;20459;-62
2024/02/17 05:51:52;;;;;;;38.80;18.80;;;;;;;-4.33;60.89;100974.25;5048641;28;20060;-64
2024/02/17 05:54:18;;;;;;;34.80;17.20;;;;;;;-4.31;61.71;100972.50;5049337;28;20050;-66
2024/02/17 05:56:45;;;;;;;32.75;15.98;;;;;;;-4.15;61.34;100972.47;5049284;28;20359;-75
2024/02/17 05:59:10;;;;;;;34.50;17.80;;;;;;;-4.11;60.78;100969.84;5048931;28;20037;-76
2024/02/17 06:01:36;;;;;;;36.00;16.67;;;;;;;-3.95;60.08;100980.28;5043381;28;20025;-69
2024/02/17 06:04:01;;;;;;;34.00;17.30;;;;;;;-3.93;60.79;100965.47;5053476;28;20108;-71
2024/02/17 06:06:27;;;;;;;36.80;16.63;;;;;;;-3.86;60.24;100961.94;5041082;28;20036;-72
2024/02/17 06:08:55;;;;;;;32.80;17.52;;;;;;;-3.72;60.53;100966.28;5034094;28;20037;-69
2024/02/17 06:11:21;;;;;;;33.47;17.35;;;;;;;-3.61;59.95;100962.75;5042740;28;20025;-70
2024/02/17 06:13:46;;;;;;;35.20;17.02;;;;;;;-3.50;59.95;100962.69;5048914;28;20133;-70
2024/02/17 06:16:13;;;;;;;34.78;17.40;;;;;;;-3.48;59.38;100960.06;5047747;28;20436;-70
2024/02/17 06:21:23;;;;;;;34.13;16.58;;;;;;;-3.43;59.42;100963.53;5048939;28;20048;-70
2024/02/17 06:23:51;;;;;;;33.60;17.05;;;;;;;-3.39;59.25;100967.88;5048412;28;20040;-71
2024/02/17 06:26:26;;;;;;;31.08;16.52;;;;;;;-3.30;58.83;100955.63;5048131;28;20116;-66
2024/02/17 06:28:54;;;;;;;38.63;15.80;;;;;;;-3.41;58.85;100966.16;5048041;28;20678;-69
2024/02/17 06:31:19;;;;;;;30.33;16.08;;;;;;;-3.53;59.62;100948.75;5048950;28;20450;-69
2024/02/17 06:33:45;;;;;;;33.40;15.82;;;;;;;-3.29;58.50;100954.75;5048570;28;20025;-70
2024/02/17 06:36:10;;;;;;;31.65;14.85;;;;;;;-3.34;59.12;100957.38;5048103;28;20376;-70
2024/02/17 06:38:37;;;;;;;32.20;16.83;;;;;;;-3.42;59.18;100948.69;5048131;28;20820;-70
2024/02/17 06:41:02;;;;;;;31.35;16.50;;;;;;;-3.38;59.10;100953.91;5050445;28;20033;-70
2024/02/17 06:43:29;;;;;;;34.80;16.65;;;;;;;-3.37;59.37;100934.72;5051976;28;20044;-70
2024/02/17 06:45:55;;;;;;;32.42;16.50;;;;;;;-3.22;58.99;100946.84;5051689;28;20055;-69
2024/02/17 06:48:20;;;;;;;34.03;16.30;;;;;;;-3.09;58.52;100934.56;5051530;28;20360;-69
2024/02/17 06:50:46;;;;;;;33.10;17.02;;;;;;;-2.95;59.14;100941.44;5051682;28;20457;-70
2024/02/17 06:53:11;;;;;;;32.05;16.42;;;;;;;-2.70;58.50;100938.63;5051910;28;20045;-70
2024/02/17 06:55:37;;;;;;;29.42;15.88;;;;;;;-2.40;57.92;100936.66;5051278;28;20044;-70
2024/02/17 06:58:02;;;;;;;33.35;17.02;;;;;;;-2.33;57.24;100922.59;5051321;28;20035;-70
2024/02/17 07:00:28;;;;;;;30.48;16.15;;;;;;;-2.20;56.82;100934.69;5051281;28;20035;-72
2024/02/17 07:02:53;;;;;;;30.10;15.48;;;;;;;-2.21;56.36;100925.09;5051524;28;20033;-71
2024/02/17 07:05:19;;;;;;;30.30;15.57;;;;;;;-2.17;57.00;100937.31;5050239;28;20062;-67
2024/02/17 07:07:44;;;;;;;36.60;15.75;;;;;;;-1.93;56.10;100927.44;5051688;28;20032;-69
2024/02/17 07:10:10;;;;;;;32.28;16.17;;;;;;;-1.91;56.47;100923.06;5051079;28;20093;-71
2024/02/17 07:12:35;;;;;;;31.58;16.30;;;;;;;-1.83;55.60;100919.47;5051168;28;20029;-72
2024/02/17 07:15:04;;;;;;;34.97;17.60;;;;;;;-1.86;55.88;100909.00;5051042;28;20361;-71
2024/02/17 07:17:29;;;;;;;33.28;16.88;;;;;;;-1.82;56.02;100902.81;5050070;28;20371;-70
2024/02/17 07:19:55;;;;;;;31.23;16.02;;;;;;;-1.62;56.28;100906.06;5051270;28;20031;-70
2024/02/17 07:22:20;;;;;;;36.53;17.13;;;;;;;-1.43;55.75;100904.94;5050030;27;20111;-69
2024/02/17 07:24:48;;;;;;;35.00;15.95;;;;;;;-1.20;54.98;100900.25;5050935;28;20111;-67
2024/02/17 07:27:13;;;;;;;29.80;16.38;;;;;;;-1.15;54.62;100892.31;5050768;28;20029;-71
2024/02/17 07:29:40;;;;;;;30.48;15.80;;;;;;;-0.97;54.83;100883.25;5050655;28;20025;-72
2024/02/17 07:32:06;;;;;;;31.92;15.23;;;;;;;-0.81;53.62;100878.63;5050840;28;20037;-72
2024/02/17 07:34:31;;;;;;;32.95;16.02;;;;;;;-0.65;53.80;100867.84;5051010;28;20112;-70
2024/02/17 07:36:58;;;;;;;31.27;15.32;;;;;;;-0.38;53.20;100870.88;5050671;28;20223;-69
2024/02/17 07:39:25;;;;;;;30.23;15.85;;;;;;;-0.19;52.20;100874.91;5050439;28;20037;-68
2024/02/17 07:41:54;;;;;;;30.13;15.65;;;;;;;-0.05;52.41;100855.34;5051406;28;20107;-62
2024/02/17 07:44:20;;;;;;;32.72;16.25;;;;;;;0.03;51.97;100842.91;5050506;28;20040;-65
2024/02/17 07:46:48;;;;;;;30.58;16.45;;;;;;;0.10;51.60;100844.50;5050782;28;20057;-65
2024/02/17 07:49:15;;;;;;;31.38;16.35;;;;;;;0.31;51.71;100836.16;5050716;28;20029;-66
2024/02/17 07:51:43;;;;;;;33.30;16.95;;;;;;;0.40;51.34;100836.84;5104204;27;20058;-68
2024/02/17 07:54:08;;;;;;;28.25;15.68;;;;;;;0.33;51.37;100831.72;5128368;27;20035;-67
2024/02/17 07:56:34;;;;;;;29.85;15.43;;;;;;;0.27;51.25;100824.84;5130742;27;20242;-70
2024/02/17 07:58:59;;;;;;;30.17;15.65;;;;;;;0.35;51.63;100814.13;5133446;27;20031;-69
2024/02/17 08:01:24;;;;;;;30.02;15.88;;;;;;;0.30;51.26;100814.25;5133493;27;20062;-70
2024/02/17 08:03:50;;;;;;;35.42;16.63;;;;;;;0.22;51.78;100817.03;5055688;27;20033;-68
2024/02/17 08:06:19;;;;;;;29.63;15.55;;;;;;;0.13;51.98;100804.06;5050891;28;20024;-68
2024/02/17 08:08:45;;;;;;;29.20;16.70;;;;;;;0.17;52.15;100804.84;5050612;28;20040;-66
2024/02/17 08:11:11;;;;;;;39.33;16.33;;;;;;;0.15;52.38;100791.75;5050115;28;20048;-70
2024/02/17 08:13:38;;;;;;;30.27;15.40;;;;;;;0.26;51.74;100796.78;5049483;28;20353;-69
2024/02/17 08:16:04;;;;;;;31.58;16.25;;;;;;;0.27;52.12;100795.88;5050137;28;20064;-68
2024/02/17 08:18:29;;;;;;;30.98;17.38;;;;;;;0.38;51.30;100799.13;5050280;28;20065;-69
2024/02/17 08:20:57;;;;;;;29.42;15.57;;;;;;;0.49;51.40;100795.38;5050040;28;20047;-70
2024/02/17 08:23:26;;;;;;;33.65;16.17;;;;;;;0.55;50.58;100795.25;5049606;27;20368;-66
2024/02/17 08:25:52;;;;;;;31.98;16.20;;;;;;;0.46;51.29;100798.06;5050740;28;20373;-69
2024/02/17 08:28:18;;;;;;;30.25;16.05;;;;;;;0.56;50.57;100789.06;5050169;28;20029;-70
2024/02/17 08:30:43;;;;;;;31.98;16.42;;;;;;;0.76;51.19;100782.44;5049873;28;20171;-79
2024/02/17 08:33:09;;;;;;;34.03;16.42;;;;;;;1.05;50.68;100789.63;5049783;28;20097;-72
2024/02/17 08:35:35;;;;;;;34.20;16.98;;;;;;;1.23;49.90;100780.38;5049981;28;20418;-70
2024/02/17 08:38:02;;;;;;;35.97;18.05;;;;;;;1.21;50.12;100783.94;5050393;28;20102;-71
2024/02/17 08:40:27;;;;;;;31.35;16.52;;;;;;;1.34;50.37;100773.94;5048895;28;20033;-70
2024/02/17 08:42:53;;;;;;;35.17;16.48;;;;;;;1.56;49.16;100772.44;5049890;28;20093;-68
2024/02/17 08:45:18;;;;;;;31.48;16.25;;;;;;;1.60;49.08;100765.31;5049883;28;20437;-68
2024/02/17 08:47:44;;;;;;;29.27;16.25;;;;;;;1.60;49.56;100761.78;5050233;28;20067;-68
2024/02/17 08:50:09;;;;;;;33.83;16.73;;;;;;;1.60;49.56;100743.31;5049663;28;20025;-65
2024/02/17 08:52:35;;;;;;;29.80;16.23;;;;;;;1.62;49.20;100746.78;5049285;28;20045;-66
2024/02/17 08:55:00;;;;;;;32.45;16.33;;;;;;;1.40;49.16;100715.72;5049336;28;20056;-66
2024/02/17 08:57:26;;;;;;;30.13;16.38;;;;;;;1.62;49.76;100758.22;5049717;28;20037;-66
2024/02/17 08:59:52;;;;;;;32.92;16.10;;;;;;;1.60;49.99;100730.13;5049305;28;20096;-65
2024/02/17 09:02:18;;;;;;;29.65;16.63;;;;;;;1.81;49.24;100742.69;5049282;28;20033;-67
2024/02/17 09:04:45;;;;;;;32.80;16.20;;;;;;;1.81;49.57;100740.06;5048398;28;20032;-66
2024/02/17 09:07:11;;;;;;;31.75;16.08;;;;;;;1.85;48.83;100736.41;5048785;28;20029;-69
2024/02/17 09:09:36;;;;;;;30.75;16.48;;;;;;;1.91;49.11;100732.72;5049007;28;20039;-70
2024/02/17 09:12:02;;;;;;;29.98;15.90;;;;;;;1.81;49.11;100729.50;5048931;28;20025;-67
2024/02/17 09:14:33;;;;;;;35.10;16.80;;;;;;;1.90;49.73;100725.72;5049400;28;20444;-62
2024/02/17 09:16:58;;;;;;;30.58;15.93;;;;;;;1.77;49.40;100688.25;5059581;27;20539;-66
2024/02/17 09:19:24;;;;;;;35.28;16.65;;;;;;;1.93;48.85;100719.47;5133082;27;20140;-67
2024/02/17 09:21:49;;;;;;;27.90;16.00;;;;;;;1.76;49.49;100683.88;5133103;27;20119;-65
2024/02/17 09:24:19;;;;;;;31.08;16.77;;;;;;;1.94;49.34;100715.94;5116284;27;20509;-68
2024/02/17 09:26:45;;;;;;;30.67;16.48;;;;;;;1.92;49.18;100712.44;5055564;27;20419;-67
2024/02/17 09:29:11;;;;;;;29.75;16.42;;;;;;;1.86;49.17;100708.25;5048181;28;20357;-69
2024/02/17 09:31:36;;;;;;;31.70;16.20;;;;;;;1.88;50.55;100700.25;5047977;28;20027;-68
2024/02/17 09:34:03;;;;;;;33.20;16.45;;;;;;;2.05;50.14;100719.09;5048243;27;20037;-69
2024/02/17 09:36:30;;;;;;;26.80;15.88;;;;;;;1.95;49.39;100643.72;5047961;28;20029;-67
2024/02/17 09:38:56;;;;;;;27.70;15.70;;;;;;;2.41;49.19;100687.16;5048466;27;20048;-66
2024/02/17 09:41:21;;;;;;;29.52;15.63;;;;;;;2.71;48.92;100676.47;5058853;28;20029;-66
2024/02/17 09:43:49;;;;;;;27.80;14.55;;;;;;;3.20;48.44;100680.06;5052797;27;20035;-63
2024/02/17 09:46:16;;;;;;;27.48;14.50;;;;;;;3.41;47.01;100673.97;5013571;28;20041;-68
2024/02/17 09:48:42;;;;;;;27.08;13.63;;;;;;;3.25;46.90;100619.88;5028337;28;20037;-68
2024/02/17 09:51:09;;;;;;;27.38;13.73;;;;;;;3.55;46.11;100677.91;5028428;28;20488;-68
2024/02/17 09:53:38;;;;;;;26.45;14.05;;;;;;;3.48;46.96;100666.69;5027157;28;20095;-65
2024/02/17 09:56:05;;;;;;;24.98;14.43;;;;;;;3.29;47.71;100651.47;5028513;28;20406;-69
2024/02/17 09:58:30;;;;;;;27.33;14.27;;;;;;;3.39;47.97;100653.78;5051399;28;20038;-68
2024/02/17 10:00:57;;;;;;;25.33;14.27;;;;;;;3.40;47.63;100652.88;5054616;28;20029;-67
2024/02/17 10:03:24;;;;;;;26.42;13.02;;;;;;;3.44;48.08;100643.91;5122792;28;20027;-67
2024/02/17 10:05:50;;;;;;;21.67;13.20;;;;;;;3.56;48.15;100643.41;5132345;27;20019;-68
2024/02/17 10:08:16;;;;;;;22.27;13.18;;;;;;;3.67;47.25;100650.09;5132122;27;20027;-68
2024/02/17 10:10:43;;;;;;;25.60;12.27;;;;;;;3.83;47.75;100640.59;5132808;27;20023;-69
2024/02/17 10:13:20;;;;;;;24.77;13.45;;;;;;;3.88;47.15;100633.38;5132539;27;20136;-68
2024/02/17 10:15:46;;;;;;;26.98;12.27;;;;;;;4.00;47.44;100636.44;5126943;27;20037;-67
2024/02/17 10:18:16;;;;;;;20.30;12.15;;;;;;;4.07;47.73;100642.34;5088699;27;20025;-67
2024/02/17 10:20:42;;;;;;;18.67;10.93;;;;;;;4.13;47.52;100636.81;5051643;28;20417;-67
2024/02/17 10:23:08;;;;;;;23.20;11.45;;;;;;;4.10;47.97;100627.22;5052006;28;20330;-68
2024/02/17 10:25:36;;;;;;;19.50;11.40;;;;;;;4.17;47.31;100627.78;5051212;28;20043;-68
2024/02/17 10:28:03;;;;;;;21.13;11.52;;;;;;;4.06;47.12;100607.03;5051192;28;20365;-69
2024/02/17 10:30:28;;;;;;;22.15;11.63;;;;;;;3.87;48.20;100569.84;5057352;27;20405;-70
2024/02/17 10:32:54;;;;;;;17.08;9.45;;;;;;;4.10;47.85;100605.13;5052019;28;20067;-68
2024/02/17 10:35:21;;;;;;;14.75;9.43;;;;;;;4.00;47.78;100600.22;5051372;28;20127;-69
2024/02/17 10:37:50;;;;;;;14.07;9.05;;;;;;;3.80;47.95;100595.69;5065757;27;20025;-65
2024/02/17 10:40:16;;;;;;;16.50;9.50;;;;;;;3.67;48.04;100605.91;5134599;27;20151;-68
2024/02/17 10:42:44;;;;;;;16.70;9.60;;;;;;;3.42;49.02;100600.72;5136090;27;20083;-68
2024/02/17 10:45:09;;;;;;;18.13;9.82;;;;;;;3.39;49.28;100592.91;5081090;27;20044;-67
2024/02/17 10:47:36;;;;;;;17.67;10.32;;;;;;;3.33;49.18;100587.84;5050446;28;20033;-69
2024/02/17 10:50:18;;;;;;;16.15;9.98;;;;;;;3.39;49.79;100585.81;5051719;28;20396;-66
2024/02/17 10:52:46;;;;;;;20.88;10.40;;;;;;;2.54;50.31;100456.75;5056844;27;20540;-67
2024/02/17 10:55:13;;;;;;;18.80;10.00;;;;;;;3.19;50.29;100578.66;5056423;27;20469;-68
2024/02/17 10:58:02;;;;;;;19.30;9.93;;;;;;;3.24;50.68;100570.50;5051313;28;20026;-67
2024/02/17 11:00:30;;;;;;;17.38;9.27;;;;;;;3.00;50.62;100537.00;5050798;28;20041;-67
2024/02/17 11:03:02;;;;;;;17.30;9.15;;;;;;;2.97;50.79;100549.47;5050009;28;20040;-68
2024/02/17 11:05:30;;;;;;;15.52;9.32;;;;;;;2.85;50.81;100562.25;5051503;28;20033;-66
2024/02/17 11:07:57;;;;;;;15.70;9.57;;;;;;;2.76;50.69;100556.44;5050921;28;20037;-69
2024/02/17 11:10:29;;;;;;;15.32;9.32;;;;;;;2.84;50.86;100555.22;5051076;28;20057;-67